createdAt,value
2023-02-02T00:01:02.436Z,1.52
2023-02-02T00:03:32.720Z,1.20
2023-02-02T00:06:02.932Z,1.58
2023-02-02T00:08:33.123Z,1.50
2023-02-02T00:13:32.456Z,1.73
2023-02-02T00:16:23.457Z,1.50
2023-02-02T00:18:54.134Z,1.27
2023-02-02T00:21:25.070Z,1.90
2023-02-02T00:23:56.453Z,1.90
2023-02-02T00:26:28.011Z,1.63
2023-02-02T00:28:58.546Z,1.88
2023-02-02T00:31:29.588Z,1.42
2023-02-02T00:34:01.001Z,2.00
2023-02-02T00:36:31.865Z,1.60
2023-02-02T00:39:01.988Z,1.40
2023-02-02T00:41:32.413Z,1.40
2023-02-02T00:44:21.077Z,1.30
2023-02-02T00:46:51.352Z,1.45
2023-02-02T00:51:50.569Z,1.10
2023-02-02T00:54:20.795Z,1.65
2023-02-02T00:56:50.786Z,1.55
2023-02-02T00:59:20.747Z,1.70
2023-02-02T01:01:50.653Z,1.60
2023-02-02T01:04:20.601Z,1.65
2023-02-02T01:06:50.473Z,1.65
2023-02-02T01:09:20.478Z,1.50
2023-02-02T01:11:50.776Z,1.52
2023-02-02T01:14:20.902Z,1.60
2023-02-02T01:19:21.003Z,1.55
2023-02-02T01:21:53.257Z,1.30
2023-02-02T01:24:23.636Z,1.35
2023-02-02T01:29:23.044Z,1.70
2023-02-02T01:31:53.623Z,1.95
2023-02-02T01:34:23.822Z,2.17
2023-02-02T01:36:53.692Z,2.20
2023-02-02T01:39:24.692Z,1.88
2023-02-02T01:41:55.056Z,1.52
2023-02-02T01:45:01.979Z,1.58
2023-02-02T01:47:38.011Z,1.58
2023-02-02T01:50:10.617Z,1.20
2023-02-02T01:52:41.953Z,1.50
2023-02-02T01:55:15.623Z,1.27
2023-02-02T01:58:11.493Z,1.50
2023-02-02T02:00:46.937Z,1.40
2023-02-02T02:03:22.517Z,1.35
2023-02-02T02:08:32.291Z,1.42
2023-02-02T02:11:02.971Z,1.20
2023-02-02T02:13:56.108Z,1.15
2023-02-02T02:16:47.931Z,2.03
2023-02-02T02:20:13.296Z,1.42
2023-02-02T02:23:04.547Z,1.10
2023-02-02T02:26:37.042Z,1.77
2023-02-02T02:29:33.791Z,1.40
2023-02-02T02:32:04.737Z,1.58
2023-02-02T02:35:05.477Z,1.58
2023-02-02T02:38:02.082Z,1.42
2023-02-02T02:40:59.839Z,1.50
2023-02-02T02:43:34.563Z,1.30
2023-02-02T02:46:06.762Z,1.85
2023-02-02T02:48:36.931Z,1.95
2023-02-02T02:51:31.220Z,1.33
2023-02-02T02:54:01.274Z,1.38
2023-02-02T02:56:45.582Z,2.03
2023-02-02T02:59:23.377Z,1.38
2023-02-02T03:02:01.015Z,1.48
2023-02-02T03:04:45.142Z,1.67
2023-02-02T03:07:28.006Z,1.80
2023-02-02T03:10:00.638Z,1.90
2023-02-02T03:12:30.791Z,1.33
2023-02-02T03:15:00.666Z,1.73
2023-02-02T03:17:30.503Z,1.88
2023-02-02T03:20:00.411Z,1.40
2023-02-02T03:25:00.726Z,2.10
2023-02-02T03:27:31.401Z,1.60
2023-02-02T03:30:02.087Z,1.40
2023-02-02T03:32:32.269Z,1.67
2023-02-02T03:35:02.731Z,1.63
2023-02-02T03:37:32.848Z,1.48
2023-02-02T03:40:03.109Z,1.40
2023-02-02T03:42:33.236Z,1.45
2023-02-02T03:45:03.360Z,1.80
2023-02-02T03:50:03.355Z,1.35
2023-02-02T03:52:33.423Z,1.10
2023-02-02T03:55:03.556Z,1.23
2023-02-02T03:57:33.648Z,1.35
2023-02-02T04:00:03.621Z,1.30
2023-02-02T04:02:41.801Z,1.60
2023-02-02T04:05:12.039Z,1.67
2023-02-02T04:07:42.045Z,1.50
2023-02-02T04:10:12.840Z,1.45
2023-02-02T04:12:42.906Z,1.50
2023-02-02T04:15:12.878Z,1.70
2023-02-02T04:17:42.992Z,1.60
2023-02-02T04:22:43.009Z,1.50
2023-02-02T04:27:42.393Z,1.30
2023-02-02T04:32:42.317Z,1.02
2023-02-02T04:37:42.441Z,1.42
2023-02-02T04:40:13.178Z,1.83
2023-02-02T04:42:43.267Z,1.48
2023-02-02T04:45:13.361Z,1.00
2023-02-02T04:47:43.475Z,1.83
2023-02-02T04:52:44.432Z,1.42
2023-02-02T04:55:14.587Z,1.67
2023-02-02T04:57:44.865Z,1.85
2023-02-02T05:00:15.563Z,1.63
2023-02-02T05:02:45.773Z,1.60
2023-02-02T05:05:16.550Z,1.70
2023-02-02T05:07:46.785Z,1.75
2023-02-02T05:10:16.857Z,1.60
2023-02-02T05:15:16.367Z,1.52
2023-02-02T05:17:46.551Z,1.80
2023-02-02T05:20:16.750Z,2.08
2023-02-02T05:22:49.912Z,1.75
2023-02-02T05:25:20.284Z,1.67
2023-02-02T05:30:19.737Z,2.15
2023-02-02T05:32:49.769Z,1.98
2023-02-02T05:35:19.715Z,2.05
2023-02-02T05:37:49.878Z,2.50
2023-02-02T05:40:20.194Z,2.25
2023-02-02T05:42:50.631Z,2.15
2023-02-02T05:45:20.796Z,2.50
2023-02-02T05:47:50.952Z,3.13
2023-02-02T05:50:21.135Z,3.17
2023-02-02T05:53:04.642Z,3.28
2023-02-02T05:55:34.838Z,3.38
2023-02-02T05:58:04.806Z,2.70
2023-02-02T06:00:34.682Z,3.35
2023-02-02T06:03:04.733Z,2.83
2023-02-02T06:08:03.971Z,2.85
2023-02-02T06:13:03.304Z,2.55
2023-02-02T06:15:34.344Z,3.22
2023-02-02T06:18:04.563Z,3.63
2023-02-02T06:20:35.337Z,3.47
2023-02-02T06:23:05.764Z,4.30
2023-02-02T06:25:35.905Z,4.07
2023-02-02T06:28:06.827Z,4.78
2023-02-02T06:30:37.035Z,4.70
2023-02-02T06:33:08.440Z,5.00
2023-02-02T06:35:38.767Z,4.57
2023-02-02T06:38:08.883Z,4.32
2023-02-02T06:43:10.176Z,4.55
2023-02-02T06:45:41.438Z,4.35
2023-02-02T06:48:12.143Z,4.45
2023-02-02T06:50:42.288Z,4.43
2023-02-02T06:55:41.603Z,4.18
2023-02-02T06:58:11.502Z,4.45
2023-02-02T07:03:11.020Z,3.90
2023-02-02T07:08:11.367Z,3.83
2023-02-02T07:11:13.893Z,4.30
2023-02-02T07:13:35.661Z,3.80
2023-02-02T07:16:07.570Z,3.45
2023-02-02T07:18:40.968Z,3.33
2023-02-02T07:21:17.415Z,2.70
2023-02-02T07:23:47.905Z,2.88
2023-02-02T07:26:19.697Z,2.75
2023-02-02T07:28:50.048Z,2.40
2023-02-02T07:31:28.887Z,2.45
2023-02-02T07:33:59.001Z,2.50
2023-02-02T07:39:03.489Z,3.15
2023-02-02T07:41:35.799Z,3.55
2023-02-02T07:44:06.943Z,4.10
2023-02-02T07:46:37.130Z,4.38
2023-02-02T07:49:08.613Z,4.50
2023-02-02T07:51:40.923Z,4.18
2023-02-02T07:54:12.904Z,4.45
2023-02-02T07:59:12.878Z,3.88
2023-02-02T08:01:43.076Z,4.28
2023-02-02T08:04:13.028Z,4.70
2023-02-02T08:06:43.315Z,3.45
2023-02-02T08:09:13.438Z,4.38
2023-02-02T08:14:15.432Z,3.67
2023-02-02T08:16:45.500Z,3.50
2023-02-02T08:19:15.448Z,3.55
2023-02-02T08:24:15.037Z,3.45
2023-02-02T08:29:18.320Z,3.85
2023-02-02T08:31:48.871Z,3.60
2023-02-02T08:34:19.036Z,2.92
2023-02-02T08:39:18.298Z,2.80
2023-02-02T08:41:49.005Z,3.35
2023-02-02T08:44:19.518Z,2.88
2023-02-02T08:46:49.926Z,3.15
2023-02-02T08:49:20.111Z,2.42
2023-02-02T08:54:19.543Z,3.35
2023-02-02T08:59:18.989Z,2.00
2023-02-02T09:01:49.135Z,2.60
2023-02-02T09:04:19.472Z,2.67
2023-02-02T09:06:49.876Z,2.97
2023-02-02T09:11:49.440Z,2.50
2023-02-02T09:16:49.222Z,2.65
2023-02-02T09:19:19.475Z,2.90
2023-02-02T09:21:52.365Z,3.60
2023-02-02T09:24:22.492Z,5.03
2023-02-02T09:29:22.531Z,4.93
2023-02-02T09:31:52.666Z,4.88
2023-02-02T09:34:22.903Z,4.63
2023-02-02T09:39:22.990Z,4.47
2023-02-02T09:42:30.327Z,4.75
2023-02-02T09:47:46.823Z,4.82
2023-02-02T09:50:41.220Z,3.88
2023-02-02T09:53:38.451Z,4.10
2023-02-02T09:56:25.933Z,4.78
2023-02-02T09:59:10.289Z,4.35
2023-02-02T10:01:51.532Z,4.53
2023-02-02T10:04:36.565Z,3.75
2023-02-02T10:07:20.645Z,3.80
2023-02-02T10:09:56.460Z,4.13
2023-02-02T10:12:29.528Z,3.63
2023-02-02T10:15:24.212Z,4.05
2023-02-02T10:18:06.743Z,3.53
2023-02-02T10:20:45.895Z,3.50
2023-02-02T10:23:39.290Z,2.95
2023-02-02T10:26:28.453Z,2.80
2023-02-02T10:29:15.166Z,3.53
2023-02-02T10:32:08.019Z,2.45
2023-02-02T10:35:06.833Z,2.83
2023-02-02T10:38:04.539Z,2.85
2023-02-02T10:40:49.475Z,2.47
2023-02-02T10:43:56.106Z,2.95
2023-02-02T10:46:35.286Z,2.85
2023-02-02T10:49:29.822Z,3.08
2023-02-02T10:52:22.385Z,3.22
2023-02-02T10:55:17.058Z,3.45
2023-02-02T10:58:08.844Z,3.75
2023-02-02T11:00:47.785Z,2.83
2023-02-02T11:03:20.928Z,3.63
2023-02-02T11:06:09.096Z,3.17
2023-02-02T11:08:41.471Z,2.60
2023-02-02T11:11:25.051Z,2.70
2023-02-02T11:14:10.574Z,1.90
2023-02-02T11:16:46.531Z,2.42
2023-02-02T11:19:24.603Z,1.88
2023-02-02T11:21:59.798Z,2.30
2023-02-02T11:24:30.377Z,2.20
2023-02-02T11:29:42.474Z,1.92
2023-02-02T11:32:22.342Z,1.73
2023-02-02T11:35:14.856Z,1.90
2023-02-02T11:38:04.668Z,2.00
2023-02-02T11:41:06.339Z,2.28
2023-02-02T11:43:57.770Z,2.05
2023-02-02T11:46:34.068Z,1.35
2023-02-02T11:51:37.035Z,1.98
2023-02-02T11:54:14.164Z,2.17
2023-02-02T11:56:49.808Z,2.30
2023-02-02T11:59:29.824Z,1.75
2023-02-02T12:02:33.199Z,2.17
2023-02-02T12:05:12.159Z,1.90
2023-02-02T12:07:46.439Z,1.42
2023-02-02T12:10:22.749Z,1.75
2023-02-02T12:13:08.259Z,2.05
2023-02-02T12:16:19.457Z,2.15
2023-02-02T12:19:43.726Z,2.17
2023-02-02T12:22:32.024Z,1.90
2023-02-02T12:25:16.774Z,2.20
2023-02-02T12:27:57.406Z,1.98
2023-02-02T12:30:46.199Z,2.38
2023-02-02T12:33:57.157Z,2.10
2023-02-02T12:36:47.625Z,2.08
2023-02-02T12:40:13.760Z,2.00
2023-02-02T12:42:46.567Z,2.15
2023-02-02T12:45:54.695Z,2.38
2023-02-02T12:48:31.472Z,2.38
2023-02-02T12:51:11.539Z,2.63
2023-02-02T12:54:32.756Z,2.08
2023-02-02T12:56:58.137Z,2.05
2023-02-02T13:02:37.885Z,2.08
2023-02-02T13:05:26.048Z,1.90
2023-02-02T13:08:06.955Z,2.30
2023-02-02T13:10:44.361Z,2.30
2023-02-02T13:13:26.078Z,2.17
2023-02-02T13:16:12.045Z,2.15
2023-02-02T13:18:49.957Z,1.42
2023-02-02T13:21:24.339Z,2.05
2023-02-02T13:24:00.382Z,1.88
2023-02-02T13:26:39.941Z,1.55
2023-02-02T13:29:29.704Z,1.80
2023-02-02T13:32:11.552Z,2.25
2023-02-02T13:34:56.554Z,1.30
2023-02-02T13:37:47.109Z,1.80
2023-02-02T13:40:23.143Z,2.20
2023-02-02T13:43:10.191Z,1.73
2023-02-02T13:46:04.701Z,1.80
2023-02-02T13:49:01.572Z,2.45
2023-02-02T13:52:09.344Z,1.83
2023-02-02T13:54:44.718Z,2.47
2023-02-02T13:57:30.996Z,2.47
2023-02-02T14:00:23.958Z,1.88
2023-02-02T14:02:54.811Z,1.77
2023-02-02T14:05:34.363Z,1.95
2023-02-02T14:08:19.076Z,1.52
2023-02-02T14:10:55.328Z,2.03
2023-02-02T14:14:08.344Z,1.77
2023-02-02T14:16:38.540Z,1.65
2023-02-02T14:19:35.693Z,1.17
2023-02-02T14:22:13.055Z,1.75
2023-02-02T14:24:51.725Z,1.20
2023-02-02T14:27:21.880Z,1.73
2023-02-02T14:29:51.992Z,1.50
2023-02-02T14:32:30.601Z,0.95
2023-02-02T14:35:27.418Z,1.30
2023-02-02T14:38:30.237Z,1.20
2023-02-02T14:41:43.480Z,1.30
2023-02-02T14:44:13.620Z,1.45
2023-02-02T14:46:49.401Z,1.42
2023-02-02T14:49:27.082Z,1.20
2023-02-02T14:52:02.479Z,1.10
2023-02-02T14:54:37.539Z,1.38
2023-02-02T14:57:26.690Z,0.98
2023-02-02T15:00:01.165Z,1.25
2023-02-02T15:02:31.598Z,1.30
2023-02-02T15:05:35.356Z,1.23
2023-02-02T15:08:28.132Z,1.30
2023-02-02T15:11:02.952Z,1.30
2023-02-02T15:13:39.003Z,1.35
2023-02-02T15:18:58.723Z,0.90
2023-02-02T15:21:30.843Z,1.30
2023-02-02T15:24:01.613Z,1.27
2023-02-02T15:26:46.943Z,1.10
2023-02-02T15:29:31.182Z,1.23
2023-02-02T15:32:02.572Z,1.35
2023-02-02T15:34:47.524Z,1.05
2023-02-02T15:37:25.121Z,1.02
2023-02-02T15:40:01.260Z,1.10
2023-02-02T15:42:55.462Z,0.88
2023-02-02T15:45:44.570Z,1.10
2023-02-02T15:48:30.848Z,1.17
2023-02-02T15:51:08.694Z,0.60
2023-02-02T15:53:45.685Z,1.08
2023-02-02T15:56:24.215Z,1.00
2023-02-02T15:58:56.929Z,1.33
2023-02-02T16:01:30.899Z,1.23
2023-02-02T16:04:10.425Z,1.00
2023-02-02T16:06:40.662Z,0.98
2023-02-02T16:09:28.089Z,0.90
2023-02-02T16:11:58.346Z,1.15
2023-02-02T16:14:28.506Z,1.10
2023-02-02T16:17:19.867Z,1.13
2023-02-02T16:19:58.687Z,0.70
2023-02-02T16:22:29.265Z,1.00
2023-02-02T16:25:03.918Z,0.90
2023-02-02T16:27:34.770Z,0.93
2023-02-02T16:30:10.340Z,0.93
2023-02-02T16:32:40.701Z,0.85
2023-02-02T16:35:35.299Z,0.80
2023-02-02T16:38:33.109Z,0.90
2023-02-02T16:41:05.327Z,0.70
2023-02-02T16:43:36.611Z,1.00
2023-02-02T16:46:10.678Z,0.77
2023-02-02T16:48:42.643Z,0.75
2023-02-02T16:51:32.887Z,1.38
2023-02-02T16:54:19.187Z,0.95
2023-02-02T16:57:01.115Z,0.93
2023-02-02T16:59:36.698Z,0.80
2023-02-02T17:02:29.461Z,1.08
2023-02-02T17:05:18.780Z,0.88
2023-02-02T17:07:56.962Z,1.00
2023-02-02T17:10:34.247Z,0.90
2023-02-02T17:13:26.140Z,0.70
2023-02-02T17:15:56.210Z,1.00
2023-02-02T17:18:26.569Z,0.85
2023-02-02T17:21:05.339Z,0.95
2023-02-02T17:23:38.378Z,0.90
2023-02-02T17:26:10.504Z,1.10
2023-02-02T17:28:43.741Z,1.00
2023-02-02T17:31:17.062Z,1.02
2023-02-02T17:33:47.281Z,0.80
2023-02-02T17:36:17.495Z,0.98
2023-02-02T17:38:47.672Z,0.98
2023-02-02T17:41:17.809Z,0.80
2023-02-02T17:43:47.908Z,0.85
2023-02-02T17:46:18.152Z,1.02
2023-02-02T17:48:48.354Z,0.95
2023-02-02T17:51:19.134Z,1.00
2023-02-02T17:53:50.342Z,1.02
2023-02-02T17:56:21.907Z,1.42
2023-02-02T17:58:52.051Z,1.05
2023-02-02T18:01:22.211Z,0.93
2023-02-02T18:03:52.456Z,1.25
2023-02-02T18:06:22.840Z,1.13
2023-02-02T18:08:53.716Z,1.15
2023-02-02T18:11:23.591Z,0.98
2023-02-02T18:13:54.291Z,1.38
2023-02-02T18:16:24.461Z,1.20
2023-02-02T18:18:55.323Z,0.80
2023-02-02T18:21:27.591Z,1.30
2023-02-02T18:23:58.157Z,0.80
2023-02-02T18:26:28.374Z,1.30
2023-02-02T18:29:00.374Z,0.88
2023-02-02T18:31:30.480Z,1.00
2023-02-02T18:34:00.564Z,0.80
2023-02-02T18:38:59.955Z,0.95
2023-02-02T18:41:30.027Z,0.80
2023-02-02T18:44:00.226Z,1.08
2023-02-02T18:46:30.341Z,0.85
2023-02-02T18:49:00.491Z,0.63
2023-02-02T18:51:31.476Z,0.85
2023-02-02T18:54:01.748Z,1.23
2023-02-02T18:56:32.163Z,1.23
2023-02-02T18:59:02.126Z,1.20
2023-02-02T19:01:32.283Z,1.25
2023-02-02T19:04:02.903Z,0.93
2023-02-02T19:06:51.310Z,0.90
2023-02-02T19:11:56.272Z,0.85
2023-02-02T19:14:33.271Z,1.00
2023-02-02T19:17:31.176Z,1.02
2023-02-02T19:20:08.899Z,0.85
2023-02-02T19:22:39.311Z,0.75
2023-02-02T19:25:13.658Z,0.50
2023-02-02T19:27:43.665Z,1.10
2023-02-02T19:30:25.079Z,1.23
2023-02-02T19:32:55.644Z,0.95
2023-02-02T19:35:28.173Z,0.75
2023-02-02T19:38:02.983Z,0.90
2023-02-02T19:40:33.128Z,1.00
2023-02-02T19:43:15.300Z,0.95
2023-02-02T19:45:46.909Z,0.90
2023-02-02T19:48:32.876Z,1.10
2023-02-02T19:51:22.628Z,1.13
2023-02-02T19:54:02.675Z,1.10
2023-02-02T19:56:38.954Z,0.93
2023-02-02T19:59:21.160Z,1.13
2023-02-02T20:01:52.011Z,0.90
2023-02-02T20:04:22.184Z,1.10
2023-02-02T20:06:59.196Z,1.10
2023-02-02T20:09:36.396Z,0.70
2023-02-02T20:12:23.792Z,0.57
2023-02-02T20:14:54.272Z,0.57
2023-02-02T20:17:33.899Z,0.80
2023-02-02T20:20:06.993Z,0.70
2023-02-02T20:22:37.049Z,0.75
2023-02-02T20:25:10.227Z,0.68
2023-02-02T20:27:40.303Z,1.10
2023-02-02T20:30:33.723Z,1.42
2023-02-02T20:33:05.664Z,0.82
2023-02-02T20:35:40.336Z,1.40
2023-02-02T20:38:30.144Z,0.95
2023-02-02T20:41:00.823Z,0.80
2023-02-02T20:43:30.897Z,1.05
2023-02-02T20:46:01.184Z,0.95
2023-02-02T20:48:31.561Z,0.98
2023-02-02T20:51:01.762Z,0.63
2023-02-02T20:56:03.260Z,0.85
2023-02-02T20:58:33.384Z,0.95
2023-02-02T21:01:06.510Z,1.27
2023-02-02T21:03:36.944Z,0.80
2023-02-02T21:06:07.644Z,0.90
2023-02-02T21:08:37.886Z,0.93
2023-02-02T21:11:08.743Z,0.88
2023-02-02T21:13:39.983Z,0.90
2023-02-02T21:16:11.179Z,1.00
2023-02-02T21:18:41.184Z,0.90
2023-02-02T21:21:11.502Z,1.08
2023-02-02T21:23:43.462Z,1.10
2023-02-02T21:26:14.404Z,1.05
2023-02-02T21:28:44.547Z,0.98
2023-02-02T21:31:17.313Z,0.98
2023-02-02T21:33:51.020Z,1.20
2023-02-02T21:36:30.155Z,1.20
2023-02-02T21:39:28.017Z,1.17
2023-02-02T21:42:10.280Z,1.00
2023-02-02T21:47:36.538Z,0.82
2023-02-02T21:50:21.367Z,1.00
2023-02-02T21:52:51.496Z,0.88
2023-02-02T21:55:34.793Z,0.80
2023-02-02T21:58:27.634Z,0.80
2023-02-02T22:01:01.631Z,1.00
2023-02-02T22:03:38.511Z,1.05
2023-02-02T22:06:29.212Z,1.05
2023-02-02T22:09:09.522Z,0.88
2023-02-02T22:11:49.411Z,1.00
2023-02-02T22:14:24.216Z,0.88
2023-02-02T22:16:58.450Z,1.35
2023-02-02T22:19:40.787Z,1.08
2023-02-02T22:24:42.765Z,1.05
2023-02-02T22:27:27.343Z,0.93
2023-02-02T22:30:04.200Z,0.70
2023-02-02T22:32:34.206Z,1.42
2023-02-02T22:37:33.462Z,0.77
2023-02-02T22:40:03.515Z,1.40
2023-02-02T22:42:33.594Z,1.25
2023-02-02T22:45:03.503Z,1.00
2023-02-02T22:47:33.646Z,1.08
2023-02-02T22:50:03.825Z,0.73
2023-02-02T22:55:02.863Z,1.25
2023-02-02T23:00:02.232Z,0.60
2023-02-02T23:02:32.338Z,0.90
2023-02-02T23:05:03.847Z,1.10
2023-02-02T23:07:35.305Z,0.82
2023-02-02T23:10:06.768Z,1.35
2023-02-02T23:12:36.939Z,1.52
2023-02-02T23:15:07.622Z,0.80
2023-02-02T23:17:37.660Z,1.05
2023-02-02T23:20:10.045Z,1.15
2023-02-02T23:22:40.610Z,0.98
2023-02-02T23:25:11.651Z,0.90
2023-02-02T23:27:42.091Z,1.20
2023-02-02T23:30:14.622Z,0.90
2023-02-02T23:32:44.990Z,0.82
2023-02-02T23:35:15.014Z,0.90
2023-02-02T23:40:14.834Z,1.10
2023-02-02T23:42:45.021Z,1.00
2023-02-02T23:47:46.703Z,1.00
2023-02-02T23:50:17.077Z,1.35
2023-02-02T23:52:47.513Z,1.15
2023-02-02T23:55:17.750Z,1.58
2023-02-02T23:57:47.864Z,1.10
